Time;durP1;ratioP1;P1;durP2;ratioP2;P2;SDS_P1;SDS_P2;PMS_P1;PMS_P2;Temp;Humidity;BMP_temperature;BMP_pressure;BME280_temperature;BME280_humidity;BME280_pressure;Samples;Min_cycle;Max_cycle;Signal;HPM_P1;HPM_P2
2022/01/11 00:01:00;;;;;;;299.25;52.17;;;0.20;99.90;;;;;;4884545;29;20052;-78
2022/01/11 00:03:26;;;;;;;202.25;46.35;;;0.20;99.90;;;;;;4875084;29;20059;-79
2022/01/11 00:06:42;;;;;;;297.50;53.33;;;0.10;99.90;;;;;;4904657;29;20048;-78
2022/01/11 00:08:43;;;;;;;204.90;42.53;;;0.10;99.90;;;;;;4909500;29;20059;-78
2022/01/11 00:11:09;;;;;;;231.10;47.83;;;0.20;99.90;;;;;;4894802;29;20048;-78
2022/01/11 00:13:40;;;;;;;208.77;45.35;;;0.10;99.90;;;;;;4896420;29;20123;-79
2022/01/11 00:16:08;;;;;;;239.57;48.85;;;0.10;99.90;;;;;;4900305;29;20052;-79
2022/01/11 00:18:34;;;;;;;219.30;44.15;;;0.10;99.90;;;;;;4899040;29;20046;-79
2022/01/11 00:21:00;;;;;;;198.63;44.80;;;0.10;99.90;;;;;;4901213;29;20139;-80
2022/01/11 00:25:54;;;;;;;227.60;47.97;;;0.00;99.90;;;;;;4916858;29;20727;-80
2022/01/11 00:28:22;;;;;;;162.95;42.50;;;0.10;99.90;;;;;;4899371;29;20087;-83
2022/01/11 00:30:49;;;;;;;148.45;40.17;;;0.10;99.90;;;;;;4899669;29;20122;-80
2022/01/11 00:33:22;;;;;;;166.80;42.53;;;0.00;99.90;;;;;;4899576;29;20052;-80
2022/01/11 00:36:01;;;;;;;222.45;45.65;;;0.00;99.90;;;;;;4906117;29;20147;-80
2022/01/11 00:38:29;;;;;;;117.32;37.67;;;0.00;99.90;;;;;;4884816;29;20070;-79
2022/01/11 00:40:57;;;;;;;178.23;43.92;;;0.00;99.90;;;;;;4900373;29;20069;-79
2022/01/11 00:43:25;;;;;;;156.35;42.85;;;0.00;99.90;;;;;;4914581;29;20060;-82
2022/01/11 00:45:52;;;;;;;134.98;40.78;;;0.00;99.90;;;;;;4899594;29;20044;-80
2022/01/11 00:48:19;;;;;;;154.45;42.47;;;0.00;99.90;;;;;;4883253;29;20062;-80
2022/01/11 00:50:44;;;;;;;167.18;42.67;;;0.00;99.90;;;;;;4897565;29;20107;-80
2022/01/11 00:53:11;;;;;;;198.15;46.38;;;0.00;99.90;;;;;;4896068;29;20126;-80
2022/01/11 00:55:38;;;;;;;175.13;45.60;;;0.00;99.90;;;;;;4910805;29;20056;-80
2022/01/11 00:58:05;;;;;;;185.68;44.78;;;0.10;99.90;;;;;;4886599;29;20052;-80
2022/01/11 01:00:33;;;;;;;151.13;40.85;;;0.00;99.90;;;;;;4929235;29;20083;-80
2022/01/11 01:02:59;;;;;;;185.02;44.90;;;0.00;99.90;;;;;;4886634;29;20137;-80
2022/01/11 01:05:27;;;;;;;140.70;41.97;;;0.00;99.90;;;;;;4903568;29;20505;-81
2022/01/11 01:07:53;;;;;;;148.93;43.03;;;0.00;99.90;;;;;;4867946;29;20056;-81
2022/01/11 01:10:35;;;;;;;160.20;44.33;;;0.00;99.90;;;;;;4898959;29;20036;-80
2022/01/11 01:13:03;;;;;;;175.70;43.47;;;0.10;99.90;;;;;;4883066;29;20406;-79
2022/01/11 01:15:29;;;;;;;201.90;46.25;;;0.00;99.90;;;;;;4882788;29;20099;-81
2022/01/11 01:17:55;;;;;;;194.27;45.40;;;0.10;99.90;;;;;;4898994;29;20048;-80
2022/01/11 01:20:21;;;;;;;229.63;46.45;;;0.10;99.90;;;;;;4884722;29;20044;-80
2022/01/11 01:22:50;;;;;;;241.88;46.60;;;0.00;99.90;;;;;;4898650;29;20060;-79
2022/01/11 01:25:20;;;;;;;236.90;47.22;;;0.00;99.90;;;;;;4898253;29;20044;-80
2022/01/11 01:27:46;;;;;;;246.90;51.03;;;0.00;99.90;;;;;;4882768;29;20505;-80
2022/01/11 01:30:12;;;;;;;215.82;45.45;;;0.10;99.90;;;;;;4882868;29;20052;-80
2022/01/11 01:32:38;;;;;;;207.88;45.53;;;0.00;99.90;;;;;;4882249;29;20044;-80
2022/01/11 01:35:05;;;;;;;188.15;45.50;;;0.00;99.90;;;;;;4866468;29;20510;-78
2022/01/11 01:37:31;;;;;;;211.65;46.72;;;0.00;99.90;;;;;;4905491;29;20060;-82
2022/01/11 01:39:57;;;;;;;193.00;45.03;;;0.00;99.90;;;;;;4897452;29;20040;-80
2022/01/11 01:42:27;;;;;;;187.13;44.47;;;0.00;99.90;;;;;;4883557;29;20111;-81
2022/01/11 01:44:53;;;;;;;189.07;43.45;;;0.00;99.90;;;;;;4901178;29;20420;-80
2022/01/11 01:47:19;;;;;;;230.80;46.25;;;0.00;99.90;;;;;;4902365;29;20486;-79
2022/01/11 01:49:45;;;;;;;205.57;45.15;;;0.00;99.90;;;;;;4887173;29;20127;-80
2022/01/11 01:52:14;;;;;;;215.45;46.33;;;0.00;99.90;;;;;;4896771;29;20092;-81
2022/01/11 01:54:39;;;;;;;196.43;43.83;;;0.00;99.90;;;;;;4896212;29;20143;-79
2022/01/11 01:57:05;;;;;;;246.50;49.28;;;0.10;99.90;;;;;;4902910;29;20183;-80
2022/01/11 01:59:31;;;;;;;287.38;49.92;;;0.00;99.90;;;;;;4904969;29;20398;-79
2022/01/11 02:01:58;;;;;;;216.02;46.08;;;0.10;99.90;;;;;;4865793;29;20127;-80
2022/01/11 02:04:23;;;;;;;272.90;52.10;;;0.10;99.90;;;;;;4874833;29;20048;-79
2022/01/11 02:06:49;;;;;;;325.23;52.13;;;0.10;99.90;;;;;;4873308;29;20079;-79
2022/01/11 02:09:16;;;;;;;426.40;54.10;;;0.10;99.90;;;;;;4900068;29;20040;-78
2022/01/11 02:11:42;;;;;;;266.27;48.10;;;0.10;99.90;;;;;;4896255;29;20900;-78
2022/01/11 02:14:09;;;;;;;289.65;49.95;;;0.10;99.90;;;;;;4898690;29;20056;-79
2022/01/11 02:16:35;;;;;;;331.85;54.65;;;0.10;99.90;;;;;;4908678;29;21818;-78
2022/01/11 02:19:01;;;;;;;335.63;52.63;;;0.10;99.90;;;;;;4908321;29;20074;-78
2022/01/11 02:21:27;;;;;;;315.98;52.38;;;0.10;99.90;;;;;;4884399;29;20490;-79
2022/01/11 02:23:53;;;;;;;311.88;52.80;;;0.10;99.90;;;;;;4889164;29;20138;-80
2022/01/11 02:26:20;;;;;;;294.60;51.90;;;0.10;99.90;;;;;;4896538;29;20052;-79
2022/01/11 02:28:45;;;;;;;294.75;51.47;;;0.10;99.90;;;;;;4891221;29;20087;-78
2022/01/11 02:31:12;;;;;;;221.68;46.13;;;0.10;99.90;;;;;;4889756;29;20076;-79
2022/01/11 02:33:45;;;;;;;210.23;45.53;;;0.10;99.90;;;;;;4896289;29;20056;-80
2022/01/11 02:37:13;;;;;;;228.93;46.10;;;0.20;99.90;;;;;;5134756;27;20630;-81
2022/01/11 02:39:39;;;;;;;257.40;49.97;;;0.20;99.90;;;;;;5105258;28;20051;-82
2022/01/11 02:42:05;;;;;;;219.15;44.63;;;0.20;99.90;;;;;;5110035;28;20481;-80
2022/01/11 02:44:31;;;;;;;231.90;47.47;;;0.20;99.90;;;;;;5089917;28;20110;-81
2022/01/11 02:46:58;;;;;;;180.05;44.33;;;0.20;99.90;;;;;;5098637;28;20682;-81
2022/01/11 02:49:24;;;;;;;216.75;48.10;;;0.20;99.90;;;;;;5085548;28;20079;-81
2022/01/11 02:51:50;;;;;;;257.55;49.38;;;0.20;99.90;;;;;;5120835;28;20109;-80
2022/01/11 02:54:15;;;;;;;247.88;47.40;;;0.20;99.90;;;;;;5099234;28;20048;-80
2022/01/11 02:56:41;;;;;;;250.40;49.38;;;0.20;99.90;;;;;;5095947;28;20117;-83
2022/01/11 02:59:07;;;;;;;257.50;47.83;;;0.20;99.90;;;;;;5104565;28;20150;-80
2022/01/11 03:01:33;;;;;;;255.80;48.10;;;0.20;99.90;;;;;;5105629;28;20044;-81
2022/01/11 03:03:58;;;;;;;223.68;45.92;;;0.10;99.90;;;;;;5088048;28;20079;-80
2022/01/11 03:06:24;;;;;;;214.73;43.60;;;0.20;99.90;;;;;;5075525;28;20039;-80
2022/01/11 03:08:50;;;;;;;229.23;45.20;;;0.20;99.90;;;;;;5091281;28;20043;-80
2022/01/11 03:11:18;;;;;;;218.88;46.47;;;0.20;99.90;;;;;;5085873;28;20082;-80
2022/01/11 03:13:45;;;;;;;212.20;43.67;;;0.20;99.90;;;;;;5100210;28;20477;-84
2022/01/11 03:16:12;;;;;;;189.20;42.30;;;0.20;99.90;;;;;;5103404;28;20050;-80
2022/01/11 03:18:38;;;;;;;245.60;45.83;;;0.20;99.90;;;;;;5107806;28;20126;-80
2022/01/11 03:21:04;;;;;;;244.70;46.05;;;0.20;99.90;;;;;;5091015;28;20134;-80
2022/01/11 03:23:30;;;;;;;223.40;44.80;;;0.20;99.90;;;;;;5087491;28;20040;-80
2022/01/11 03:25:56;;;;;;;192.23;42.90;;;0.10;99.90;;;;;;5082669;28;20039;-81
2022/01/11 03:28:23;;;;;;;216.63;45.22;;;0.20;99.90;;;;;;5090495;28;20040;-80
2022/01/11 03:30:52;;;;;;;196.10;44.22;;;0.20;99.90;;;;;;5096985;28;20031;-81
2022/01/11 03:33:18;;;;;;;217.70;47.28;;;0.20;99.90;;;;;;5089092;28;20050;-81
2022/01/11 03:35:45;;;;;;;196.43;45.97;;;0.20;99.90;;;;;;5102607;28;20044;-80
2022/01/11 03:38:12;;;;;;;202.93;44.03;;;0.10;99.90;;;;;;5099810;28;20090;-80
2022/01/11 03:40:39;;;;;;;163.80;41.35;;;0.10;99.90;;;;;;5070515;28;20054;-80
2022/01/11 03:43:05;;;;;;;190.07;43.42;;;0.10;99.90;;;;;;5084877;28;20511;-79
2022/01/11 03:45:32;;;;;;;199.15;42.20;;;0.10;99.90;;;;;;5059830;28;20043;-81
2022/01/11 03:48:00;;;;;;;185.35;42.72;;;0.10;99.90;;;;;;5079047;28;20093;-81
2022/01/11 03:50:27;;;;;;;182.68;41.92;;;0.10;99.90;;;;;;5088072;28;20051;-81
2022/01/11 03:53:06;;;;;;;168.30;41.85;;;0.10;99.90;;;;;;5091795;28;20113;-81
2022/01/11 03:55:57;;;;;;;178.88;41.20;;;0.00;99.90;;;;;;5081210;28;20040;-81
2022/01/11 03:58:26;;;;;;;157.10;40.00;;;0.00;99.90;;;;;;5073405;28;20111;-81
2022/01/11 04:00:53;;;;;;;142.27;40.85;;;0.00;99.90;;;;;;5090897;28;20081;-82
2022/01/11 04:03:18;;;;;;;171.25;39.55;;;0.00;99.90;;;;;;5086030;28;20052;-80
2022/01/11 04:05:45;;;;;;;152.60;39.42;;;0.00;99.90;;;;;;5071438;28;20094;-80
2022/01/11 04:08:12;;;;;;;160.43;40.47;;;0.00;99.90;;;;;;5080337;28;20146;-80
2022/01/11 04:10:38;;;;;;;125.28;38.00;;;-0.10;99.90;;;;;;5065201;28;20056;-81
2022/01/11 04:13:04;;;;;;;148.70;39.05;;;-0.10;99.90;;;;;;5084320;28;20048;-81
2022/01/11 04:15:30;;;;;;;134.25;38.10;;;-0.10;99.90;;;;;;5084990;28;20090;-80
2022/01/11 04:17:56;;;;;;;136.85;39.30;;;-0.10;99.90;;;;;;5080131;28;20078;-82
2022/01/11 04:20:22;;;;;;;137.90;39.38;;;-0.10;99.90;;;;;;5087159;28;20079;-80
2022/01/11 04:22:51;;;;;;;136.25;37.63;;;-0.10;99.90;;;;;;5064326;28;20052;-80
2022/01/11 04:25:18;;;;;;;144.50;40.28;;;-0.10;99.90;;;;;;5077275;28;20036;-81
2022/01/11 04:27:44;;;;;;;124.15;37.95;;;-0.10;99.90;;;;;;5086311;28;20113;-81
2022/01/11 04:30:10;;;;;;;147.48;40.80;;;-0.20;99.90;;;;;;5072957;28;20469;-80
2022/01/11 04:32:36;;;;;;;140.57;38.78;;;-0.20;99.90;;;;;;5074900;28;20058;-80
2022/01/11 04:35:02;;;;;;;135.25;40.03;;;-0.10;99.90;;;;;;5085273;28;20059;-80
2022/01/11 04:37:28;;;;;;;135.80;39.70;;;-0.20;99.90;;;;;;5077887;28;20048;-81
2022/01/11 04:39:54;;;;;;;139.38;38.67;;;-0.10;99.90;;;;;;5081697;28;20066;-81
2022/01/11 04:42:20;;;;;;;165.15;42.22;;;-0.10;99.90;;;;;;5111713;28;20046;-80
2022/01/11 04:44:45;;;;;;;148.85;40.47;;;-0.10;99.90;;;;;;5094341;28;20047;-80
2022/01/11 04:47:11;;;;;;;140.93;40.25;;;0.00;99.90;;;;;;5067754;28;20048;-80
2022/01/11 04:49:37;;;;;;;157.80;41.35;;;-0.10;99.90;;;;;;5067561;28;20089;-81
2022/01/11 04:52:03;;;;;;;140.98;42.58;;;-0.10;99.90;;;;;;5093474;28;20035;-81
2022/01/11 04:54:28;;;;;;;154.13;42.10;;;-0.10;99.90;;;;;;5093700;28;20365;-80
2022/01/11 04:56:54;;;;;;;139.73;40.50;;;-0.20;99.90;;;;;;5062229;28;20054;-80
2022/01/11 04:59:20;;;;;;;136.98;39.08;;;-0.20;99.90;;;;;;5063647;28;20039;-80
2022/01/11 05:01:46;;;;;;;133.38;39.05;;;-0.20;99.90;;;;;;5082124;28;20489;-80
2022/01/11 05:04:13;;;;;;;147.75;41.70;;;-0.20;99.90;;;;;;5073340;28;20048;-80
2022/01/11 05:06:39;;;;;;;152.85;41.38;;;-0.20;99.90;;;;;;5057409;28;20091;-80
2022/01/11 05:09:04;;;;;;;147.80;40.70;;;-0.20;99.90;;;;;;5078208;28;20051;-82
2022/01/11 05:11:30;;;;;;;139.45;40.85;;;-0.20;99.90;;;;;;5079624;28;20397;-80
2022/01/11 05:13:57;;;;;;;149.73;39.97;;;-0.20;99.90;;;;;;5094222;28;20138;-80
2022/01/11 05:16:22;;;;;;;134.40;40.42;;;-0.30;99.90;;;;;;5076271;28;20036;-80
2022/01/11 05:18:48;;;;;;;137.25;38.47;;;-0.20;99.90;;;;;;5093843;28;20048;-80
2022/01/11 05:21:14;;;;;;;122.07;38.90;;;-0.30;99.90;;;;;;5076074;28;20047;-79
2022/01/11 05:23:40;;;;;;;137.38;39.65;;;-0.20;99.90;;;;;;5077102;28;20083;-81
2022/01/11 05:26:06;;;;;;;130.52;38.28;;;-0.30;99.90;;;;;;5077834;28;20048;-83
2022/01/11 05:28:33;;;;;;;120.18;38.05;;;-0.20;99.90;;;;;;5073635;28;20055;-79
2022/01/11 05:30:58;;;;;;;117.70;38.60;;;-0.30;99.90;;;;;;5073585;28;20050;-79
2022/01/11 05:33:24;;;;;;;131.38;37.88;;;-0.20;99.90;;;;;;5070359;28;20047;-80
2022/01/11 05:35:50;;;;;;;131.02;38.90;;;-0.20;99.90;;;;;;5073188;28;20056;-81
2022/01/11 05:38:16;;;;;;;144.18;39.60;;;-0.10;99.90;;;;;;5078829;28;20048;-79
2022/01/11 05:40:41;;;;;;;123.90;39.33;;;-0.10;99.90;;;;;;5075688;28;20075;-79
2022/01/11 05:43:07;;;;;;;135.45;39.80;;;-0.10;99.90;;;;;;5068875;28;20128;-84
2022/01/11 05:45:33;;;;;;;137.85;43.35;;;-0.10;99.90;;;;;;5092683;28;20134;-80
2022/01/11 05:48:00;;;;;;;146.38;42.45;;;-0.10;99.90;;;;;;5088015;28;20043;-80
2022/01/11 05:50:26;;;;;;;147.57;42.08;;;-0.10;99.90;;;;;;5088292;28;20908;-79
2022/01/11 05:52:52;;;;;;;142.82;42.83;;;-0.10;99.90;;;;;;5059125;28;20101;-80
2022/01/11 05:55:18;;;;;;;146.57;40.00;;;-0.10;99.90;;;;;;5071033;28;20055;-81
2022/01/11 05:57:44;;;;;;;136.02;41.28;;;-0.10;99.90;;;;;;5107321;28;20079;-79
2022/01/11 06:00:14;;;;;;;143.27;41.78;;;-0.10;99.90;;;;;;5088326;28;20048;-83
2022/01/11 06:02:44;;;;;;;152.93;42.53;;;-0.10;99.90;;;;;;5092814;28;20492;-80
2022/01/11 06:05:10;;;;;;;137.68;43.67;;;-0.10;99.90;;;;;;5077289;28;20127;-86
2022/01/11 06:07:37;;;;;;;145.70;40.63;;;-0.10;99.90;;;;;;5045691;28;20401;-79
2022/01/11 06:10:04;;;;;;;159.63;40.38;;;-0.10;99.90;;;;;;5078266;28;20066;-80
2022/01/11 06:12:29;;;;;;;129.75;41.28;;;-0.10;99.90;;;;;;5061973;28;20043;-79
2022/01/11 06:14:55;;;;;;;129.40;41.63;;;-0.10;99.90;;;;;;5058523;28;20039;-81
2022/01/11 06:17:21;;;;;;;134.63;41.67;;;-0.10;99.90;;;;;;5064683;28;20122;-81
2022/01/11 06:19:46;;;;;;;142.73;40.47;;;-0.10;99.90;;;;;;5085535;28;20059;-82
2022/01/11 06:22:12;;;;;;;135.88;40.42;;;-0.10;99.90;;;;;;5043274;28;20493;-82
2022/01/11 06:24:38;;;;;;;138.00;41.90;;;-0.20;99.90;;;;;;5054830;28;20051;-81
2022/01/11 06:27:04;;;;;;;143.57;41.30;;;-0.20;99.90;;;;;;5077443;28;20055;-81
2022/01/11 06:29:30;;;;;;;128.38;40.25;;;-0.20;99.90;;;;;;5069278;28;20126;-82
2022/01/11 06:31:56;;;;;;;143.52;39.80;;;-0.20;99.90;;;;;;5065331;28;20190;-78
2022/01/11 06:34:22;;;;;;;127.25;38.90;;;-0.20;99.90;;;;;;5079048;28;20043;-81
2022/01/11 06:36:47;;;;;;;135.73;38.72;;;-0.20;99.90;;;;;;5077567;28;20564;-80
2022/01/11 06:39:13;;;;;;;130.20;39.90;;;-0.20;99.90;;;;;;5039364;28;20051;-81
2022/01/11 06:41:39;;;;;;;128.80;39.13;;;-0.20;99.90;;;;;;5077252;28;20189;-80
2022/01/11 06:44:06;;;;;;;131.68;41.33;;;-0.20;99.90;;;;;;5079684;28;20052;-80
2022/01/11 06:46:32;;;;;;;130.93;37.47;;;-0.20;99.90;;;;;;5087074;28;20094;-78
2022/01/11 06:48:59;;;;;;;131.10;38.85;;;-0.20;99.90;;;;;;5089655;28;20032;-81
2022/01/11 06:51:26;;;;;;;138.00;40.55;;;-0.20;99.90;;;;;;5068398;28;20064;-75
2022/01/11 06:53:51;;;;;;;121.07;39.17;;;-0.20;99.90;;;;;;5082447;28;20044;-80
2022/01/11 06:56:17;;;;;;;142.00;40.05;;;-0.20;99.90;;;;;;5076983;28;20489;-87
2022/01/11 06:58:44;;;;;;;135.20;40.22;;;-0.20;99.90;;;;;;5077380;28;20510;-79
2022/01/11 07:01:10;;;;;;;139.77;40.20;;;-0.20;99.90;;;;;;5090538;28;20047;-79
2022/01/11 07:03:37;;;;;;;143.60;41.90;;;-0.20;99.90;;;;;;5077369;28;20145;-78
2022/01/11 07:06:03;;;;;;;146.05;42.53;;;-0.20;99.90;;;;;;5070857;28;20900;-80
2022/01/11 07:08:28;;;;;;;147.07;41.25;;;-0.20;99.90;;;;;;5053901;28;20052;-78
2022/01/11 07:10:54;;;;;;;140.25;41.05;;;-0.20;99.90;;;;;;5070777;28;20110;-78
2022/01/11 07:13:20;;;;;;;138.90;43.20;;;-0.20;99.90;;;;;;5051450;28;20048;-84
2022/01/11 07:15:46;;;;;;;145.93;43.47;;;-0.20;99.90;;;;;;5070662;28;20095;-78
2022/01/11 07:18:12;;;;;;;151.00;41.70;;;-0.20;99.90;;;;;;5090040;28;20072;-78
2022/01/11 07:20:42;;;;;;;151.07;42.10;;;-0.20;99.90;;;;;;5073905;28;20048;-78
2022/01/11 07:23:08;;;;;;;150.45;41.70;;;-0.20;99.90;;;;;;5076268;28;20052;-79
2022/01/11 07:25:35;;;;;;;138.07;42.53;;;-0.20;99.90;;;;;;5090955;28;20036;-78
2022/01/11 07:28:01;;;;;;;168.75;44.28;;;-0.20;99.90;;;;;;5078445;28;20040;-77
2022/01/11 07:30:27;;;;;;;155.23;44.85;;;-0.20;99.90;;;;;;5075790;28;20052;-78
2022/01/11 07:32:53;;;;;;;158.75;41.97;;;-0.20;99.90;;;;;;5084810;28;20139;-79
2022/01/11 07:35:19;;;;;;;130.15;41.20;;;-0.10;99.90;;;;;;5092808;28;20114;-76
2022/01/11 07:37:45;;;;;;;140.43;41.65;;;-0.20;99.90;;;;;;5112689;28;20060;-78
2022/01/11 07:40:12;;;;;;;139.25;42.65;;;-0.20;99.90;;;;;;5106272;28;20504;-78
2022/01/11 07:42:38;;;;;;;145.57;42.80;;;-0.10;99.90;;;;;;5083399;28;20131;-78
2022/01/11 07:45:04;;;;;;;136.27;40.75;;;-0.10;99.90;;;;;;5075571;28;20528;-78
2022/01/11 07:47:30;;;;;;;131.35;40.55;;;-0.10;99.90;;;;;;5059105;28;20397;-79
2022/01/11 07:49:56;;;;;;;142.25;40.53;;;-0.10;99.90;;;;;;5052056;28;20051;-79
2022/01/11 07:52:21;;;;;;;126.57;40.83;;;-0.10;99.90;;;;;;5079395;28;20556;-81
2022/01/11 07:54:47;;;;;;;129.93;39.90;;;0.00;99.90;;;;;;5078841;28;20062;-78
2022/01/11 07:57:13;;;;;;;118.72;38.55;;;0.00;99.90;;;;;;5076703;28;20131;-80
2022/01/11 07:59:39;;;;;;;116.63;38.42;;;0.00;99.90;;;;;;5079627;28;20071;-78
2022/01/11 08:02:04;;;;;;;105.53;35.58;;;0.10;99.90;;;;;;5060770;28;20476;-78
2022/01/11 08:04:33;;;;;;;119.00;36.92;;;0.10;99.90;;;;;;5084036;28;20083;-78
2022/01/11 08:06:59;;;;;;;111.75;38.75;;;0.10;99.90;;;;;;5061685;28;20397;-78
2022/01/11 08:09:25;;;;;;;115.72;37.35;;;0.20;99.90;;;;;;5081804;28;20051;-77
2022/01/11 08:11:54;;;;;;;106.20;34.90;;;0.20;99.90;;;;;;5063614;28;20090;-78
2022/01/11 08:14:20;;;;;;;108.90;35.30;;;0.20;99.90;;;;;;5087535;28;20170;-77
2022/01/11 08:16:46;;;;;;;105.93;35.45;;;0.20;99.90;;;;;;5075642;28;20118;-77
2022/01/11 08:19:12;;;;;;;94.55;31.90;;;0.20;99.90;;;;;;5096859;28;20503;-78
2022/01/11 08:21:38;;;;;;;91.63;32.88;;;0.30;99.90;;;;;;5079597;28;20043;-78
2022/01/11 08:24:04;;;;;;;93.05;29.85;;;0.30;99.90;;;;;;5089871;28;20448;-78
2022/01/11 08:26:29;;;;;;;89.95;30.73;;;0.20;99.90;;;;;;5026533;28;20052;-86
2022/01/11 08:28:55;;;;;;;93.18;33.25;;;0.20;99.90;;;;;;5079985;28;20094;-80
2022/01/11 08:31:21;;;;;;;95.95;32.05;;;0.20;99.90;;;;;;5085232;28;20051;-79
2022/01/11 08:33:47;;;;;;;96.03;32.97;;;0.20;99.90;;;;;;5095856;28;20052;-77
2022/01/11 08:36:13;;;;;;;94.88;29.35;;;0.30;99.90;;;;;;5043623;28;20136;-76
2022/01/11 08:38:39;;;;;;;91.57;30.08;;;0.20;99.90;;;;;;5060806;28;20083;-77
2022/01/11 08:41:06;;;;;;;75.00;27.90;;;0.30;99.90;;;;;;5080898;28;20058;-77
2022/01/11 08:43:32;;;;;;;76.20;30.00;;;0.20;99.90;;;;;;5062551;28;20044;-81
2022/01/11 08:46:02;;;;;;;71.20;26.80;;;0.30;99.90;;;;;;5069349;28;20039;-77
2022/01/11 08:48:28;;;;;;;69.93;26.13;;;0.30;99.90;;;;;;5080170;28;20516;-77
2022/01/11 08:50:54;;;;;;;70.40;26.23;;;0.30;99.90;;;;;;5093308;28;20050;-77
2022/01/11 08:53:21;;;;;;;72.60;25.38;;;0.30;99.90;;;;;;5078073;28;20079;-80
2022/01/11 08:55:49;;;;;;;59.67;24.13;;;0.30;99.90;;;;;;5066215;28;20073;-77
2022/01/11 08:58:15;;;;;;;63.38;24.88;;;0.30;99.90;;;;;;5076639;28;20062;-77
2022/01/11 09:00:41;;;;;;;61.42;24.60;;;0.30;99.90;;;;;;5082157;28;20043;-77
2022/01/11 09:03:07;;;;;;;61.60;23.58;;;0.30;99.90;;;;;;5090923;28;20039;-77
2022/01/11 09:05:33;;;;;;;57.20;23.33;;;0.30;99.90;;;;;;5076129;28;20058;-79
2022/01/11 09:07:59;;;;;;;61.25;23.65;;;0.30;99.90;;;;;;5075990;28;20044;-77
2022/01/11 09:10:24;;;;;;;65.40;25.23;;;0.30;99.90;;;;;;5076572;28;20400;-77
2022/01/11 09:12:50;;;;;;;61.17;23.80;;;0.40;99.90;;;;;;5084117;28;20036;-77
2022/01/11 09:15:17;;;;;;;53.25;23.23;;;0.40;99.90;;;;;;5077846;28;20039;-78
2022/01/11 09:17:43;;;;;;;64.63;23.58;;;0.40;99.90;;;;;;5058957;28;20408;-82
2022/01/11 09:20:11;;;;;;;54.22;23.13;;;0.40;99.90;;;;;;5098902;28;20039;-77
2022/01/11 09:22:38;;;;;;;52.33;22.40;;;0.40;99.90;;;;;;5078761;28;20048;-82
2022/01/11 09:25:04;;;;;;;55.97;21.13;;;0.40;99.90;;;;;;5084163;28;20109;-78
2022/01/11 09:27:29;;;;;;;53.45;22.40;;;0.40;99.90;;;;;;5092998;28;20040;-78
2022/01/11 09:29:55;;;;;;;54.00;21.83;;;0.40;99.90;;;;;;5085649;28;20043;-80
2022/01/11 09:32:21;;;;;;;54.05;21.48;;;0.40;99.90;;;;;;5112385;28;20058;-79
2022/01/11 09:34:47;;;;;;;50.90;22.10;;;0.40;99.90;;;;;;5061491;28;20052;-77
2022/01/11 09:37:12;;;;;;;52.80;22.40;;;0.40;99.90;;;;;;5068719;28;20075;-77
2022/01/11 09:39:39;;;;;;;49.15;20.90;;;0.40;99.90;;;;;;5073349;28;20044;-84
2022/01/11 09:42:06;;;;;;;48.15;19.90;;;0.50;99.90;;;;;;5090202;28;20081;-77
2022/01/11 09:44:35;;;;;;;46.35;19.67;;;0.50;99.90;;;;;;5058372;28;20485;-76
2022/01/11 09:47:01;;;;;;;48.08;20.65;;;0.50;99.90;;;;;;5077605;28;20098;-77
2022/01/11 09:49:27;;;;;;;48.03;20.30;;;0.50;99.90;;;;;;5075277;28;20482;-77
2022/01/11 09:51:52;;;;;;;42.63;20.77;;;0.50;99.90;;;;;;5078361;28;20042;-77
2022/01/11 09:54:19;;;;;;;52.60;21.35;;;0.50;99.90;;;;;;5092098;28;20051;-77
2022/01/11 09:56:45;;;;;;;46.75;21.08;;;0.40;99.90;;;;;;5090612;28;20044;-76
2022/01/11 09:59:11;;;;;;;45.60;20.42;;;0.50;99.90;;;;;;5092038;28;20048;-76
2022/01/11 10:01:37;;;;;;;44.88;20.63;;;0.40;99.90;;;;;;5093061;28;20054;-76
2022/01/11 10:04:11;;;;;;;45.10;20.13;;;0.40;99.90;;;;;;5057473;28;20078;-76
2022/01/11 10:06:42;;;;;;;48.60;20.73;;;0.50;99.90;;;;;;5071807;28;20056;-76
2022/01/11 10:09:21;;;;;;;44.47;20.17;;;0.50;99.90;;;;;;5084620;28;20069;-76
2022/01/11 10:11:49;;;;;;;43.38;20.15;;;0.40;99.90;;;;;;5087525;28;20040;-77
2022/01/11 10:14:32;;;;;;;45.90;21.27;;;0.50;99.90;;;;;;5091977;28;20087;-76
2022/01/11 10:17:19;;;;;;;43.53;19.33;;;0.50;99.90;;;;;;5092108;28;20047;-76
2022/01/11 10:20:20;;;;;;;38.83;18.88;;;0.50;99.90;;;;;;5092438;28;20047;-77
2022/01/11 10:22:53;;;;;;;45.92;19.60;;;0.50;99.90;;;;;;5079448;28;20123;-76
2022/01/11 10:25:19;;;;;;;51.30;20.75;;;0.50;99.90;;;;;;5072076;28;20051;-77
2022/01/11 10:27:52;;;;;;;40.92;19.30;;;0.40;99.90;;;;;;5091632;28;20093;-77
2022/01/11 10:30:20;;;;;;;44.00;18.88;;;0.50;99.90;;;;;;5076495;28;20047;-76
2022/01/11 10:32:50;;;;;;;47.72;19.25;;;0.50;99.90;;;;;;5075445;28;20057;-76
2022/01/11 10:35:23;;;;;;;48.38;20.50;;;0.50;99.90;;;;;;5073593;28;20048;-76
2022/01/11 10:37:54;;;;;;;42.13;19.63;;;0.60;99.90;;;;;;5056209;28;20521;-76
2022/01/11 10:40:27;;;;;;;37.78;18.65;;;0.60;99.90;;;;;;5077251;28;20051;-76
2022/01/11 10:42:56;;;;;;;47.13;19.88;;;0.60;99.90;;;;;;5072652;28;20517;-76
2022/01/11 10:45:29;;;;;;;46.42;19.45;;;0.60;99.90;;;;;;5073680;28;20122;-76
2022/01/11 10:48:05;;;;;;;39.38;19.13;;;0.60;99.90;;;;;;5078679;28;20098;-78
2022/01/11 10:50:34;;;;;;;;;;;0.70;99.90;;;;;;5077493;28;20071;-78
2022/01/11 10:53:15;;;;;;;42.15;18.02;;;0.60;99.90;;;;;;5085625;28;19974;-76
2022/01/11 10:55:42;;;;;;;46.20;19.55;;;0.60;99.90;;;;;;5083889;28;20040;-76
2022/01/11 10:58:10;;;;;;;39.92;18.92;;;0.60;99.90;;;;;;5095251;28;20094;-76
2022/01/11 11:00:40;;;;;;;45.50;19.88;;;0.60;99.90;;;;;;5091691;28;20041;-76
2022/01/11 11:03:10;;;;;;;42.97;19.90;;;0.70;99.90;;;;;;5059128;28;20075;-76
2022/01/11 11:05:45;;;;;;;44.42;20.27;;;0.70;99.90;;;;;;5092394;28;20036;-76
2022/01/11 11:08:23;;;;;;;40.58;18.95;;;0.70;99.90;;;;;;5061473;28;20059;-76
2022/01/11 11:10:55;;;;;;;39.13;19.73;;;0.70;99.90;;;;;;5090183;28;20058;-76
2022/01/11 11:13:25;;;;;;;41.67;19.27;;;0.60;99.90;;;;;;5075897;28;20044;-75
2022/01/11 11:15:54;;;;;;;40.38;19.10;;;0.70;99.90;;;;;;5076481;28;20129;-76
2022/01/11 11:18:38;;;;;;;42.88;19.98;;;0.70;99.90;;;;;;5075714;28;20460;-76
2022/01/11 11:21:22;;;;;;;44.08;19.13;;;0.70;99.90;;;;;;5078082;28;20087;-77
2022/01/11 11:23:50;;;;;;;39.90;17.15;;;0.80;99.90;;;;;;5077763;28;20481;-76
2022/01/11 11:26:17;;;;;;;38.30;18.70;;;0.80;99.90;;;;;;5086937;28;20071;-76
2022/01/11 11:28:43;;;;;;;45.53;19.25;;;0.80;99.90;;;;;;5086549;28;20119;-77
2022/01/11 11:31:09;;;;;;;35.97;17.48;;;0.90;99.90;;;;;;5063089;28;20183;-77
2022/01/11 11:33:41;;;;;;;37.33;18.85;;;0.90;99.90;;;;;;5076629;28;20040;-77
2022/01/11 11:36:11;;;;;;;38.28;18.58;;;0.90;99.90;;;;;;5078808;28;20060;-76
2022/01/11 11:38:43;;;;;;;37.45;18.02;;;0.90;99.90;;;;;;5091016;28;20058;-79
2022/01/11 11:41:11;;;;;;;32.17;16.98;;;0.90;99.90;;;;;;5104378;28;20044;-76
2022/01/11 11:43:37;;;;;;;37.65;17.52;;;1.00;99.90;;;;;;5075141;28;20097;-81
2022/01/11 11:46:03;;;;;;;35.40;16.55;;;1.00;99.90;;;;;;5064380;28;20131;-79
2022/01/11 11:48:29;;;;;;;34.70;17.52;;;1.00;99.90;;;;;;5087785;28;20035;-80
2022/01/11 11:51:07;;;;;;;34.45;17.10;;;1.10;99.90;;;;;;5051695;28;20074;-80
2022/01/11 11:53:38;;;;;;;31.70;16.08;;;1.10;99.90;;;;;;5082442;28;20129;-78
2022/01/11 11:56:16;;;;;;;33.22;17.40;;;1.30;99.90;;;;;;5056159;28;20051;-78
2022/01/11 11:58:45;;;;;;;36.10;17.08;;;1.50;99.90;;;;;;5101147;28;20130;-79
2022/01/11 12:01:41;;;;;;;32.60;15.98;;;1.70;99.90;;;;;;5112086;28;20184;-79
2022/01/11 12:04:35;;;;;;;30.85;14.27;;;2.00;99.90;;;;;;5079813;28;20055;-77
2022/01/11 12:07:32;;;;;;;26.55;13.77;;;2.20;99.90;;;;;;5093976;28;20079;-82
2022/01/11 12:09:59;;;;;;;27.95;13.65;;;2.40;99.90;;;;;;5082140;28;20066;-77
2022/01/11 12:12:51;;;;;;;32.40;14.73;;;2.50;99.90;;;;;;5084928;28;20056;-77
2022/01/11 12:15:32;;;;;;;32.17;14.80;;;2.70;99.90;;;;;;5090002;28;20061;-78
2022/01/11 12:17:57;;;;;;;29.42;14.73;;;2.80;99.90;;;;;;5083227;28;20047;-86
2022/01/11 12:20:42;;;;;;;27.60;14.43;;;3.00;99.90;;;;;;5083465;28;20079;-81
2022/01/11 12:23:13;;;;;;;31.13;13.95;;;3.10;99.90;;;;;;5085326;28;20511;-78
2022/01/11 12:25:43;;;;;;;30.90;14.38;;;3.20;99.90;;;;;;5088415;28;20036;-78
2022/01/11 12:28:18;;;;;;;28.00;13.63;;;3.30;99.90;;;;;;5085353;28;20048;-78
2022/01/11 12:30:44;;;;;;;27.40;13.40;;;3.40;99.90;;;;;;5082929;28;20496;-78
2022/01/11 12:33:12;;;;;;;26.08;13.70;;;3.40;99.90;;;;;;5094121;28;20048;-77
2022/01/11 12:35:54;;;;;;;27.55;13.18;;;3.50;99.90;;;;;;5095252;28;20043;-78